sensor_id;sensor_type;location;lat;lon;timestamp;temperature;humidity
35445;DHT22;21562;49.476;6.086;2023-07-31T00:02:03;19.90;99.90
35445;DHT22;21562;49.476;6.086;2023-07-31T00:04:29;19.90;99.90
35445;DHT22;21562;49.476;6.086;2023-07-31T00:06:55;19.80;99.90
35445;DHT22;21562;49.476;6.086;2023-07-31T00:09:20;19.60;99.90
35445;DHT22;21562;49.476;6.086;2023-07-31T00:11:46;19.50;99.90
35445;DHT22;21562;49.476;6.086;2023-07-31T00:14:12;19.40;99.90
35445;DHT22;21562;49.476;6.086;2023-07-31T00:16:37;19.50;99.90
35445;DHT22;21562;49.476;6.086;2023-07-31T00:19:03;19.50;99.90
35445;DHT22;21562;49.476;6.086;2023-07-31T00:21:28;19.50;99.90
35445;DHT22;21562;49.476;6.086;2023-07-31T00:23:54;19.60;99.90
35445;DHT22;21562;49.476;6.086;2023-07-31T00:26:19;19.60;99.90
35445;DHT22;21562;49.476;6.086;2023-07-31T00:28:45;19.50;99.90
35445;DHT22;21562;49.476;6.086;2023-07-31T00:31:11;19.40;99.90
35445;DHT22;21562;49.476;6.086;2023-07-31T00:33:37;19.60;99.90
35445;DHT22;21562;49.476;6.086;2023-07-31T00:36:03;19.80;99.90
35445;DHT22;21562;49.476;6.086;2023-07-31T00:38:28;20.00;99.90
35445;DHT22;21562;49.476;6.086;2023-07-31T00:40:54;19.90;99.90
35445;DHT22;21562;49.476;6.086;2023-07-31T00:43:20;19.90;99.90
35445;DHT22;21562;49.476;6.086;2023-07-31T00:45:45;19.80;99.90
35445;DHT22;21562;49.476;6.086;2023-07-31T00:48:11;19.80;99.90
35445;DHT22;21562;49.476;6.086;2023-07-31T00:50:37;19.90;99.90
35445;DHT22;21562;49.476;6.086;2023-07-31T00:53:04;20.00;99.90
35445;DHT22;21562;49.476;6.086;2023-07-31T00:55:30;19.70;99.90
35445;DHT22;21562;49.476;6.086;2023-07-31T00:57:56;19.70;99.90
35445;DHT22;21562;49.476;6.086;2023-07-31T01:00:22;19.70;99.90
35445;DHT22;21562;49.476;6.086;2023-07-31T01:02:49;19.80;99.90
35445;DHT22;21562;49.476;6.086;2023-07-31T01:05:15;20.10;99.90
35445;DHT22;21562;49.476;6.086;2023-07-31T01:08:01;19.90;99.90
35445;DHT22;21562;49.476;6.086;2023-07-31T01:10:40;20.00;99.90
35445;DHT22;21562;49.476;6.086;2023-07-31T01:13:07;19.90;99.90
35445;DHT22;21562;49.476;6.086;2023-07-31T01:15:33;20.00;99.90
35445;DHT22;21562;49.476;6.086;2023-07-31T01:17:59;20.20;99.90
35445;DHT22;21562;49.476;6.086;2023-07-31T01:20:26;20.00;99.90
35445;DHT22;21562;49.476;6.086;2023-07-31T01:28:25;20.30;99.90
35445;DHT22;21562;49.476;6.086;2023-07-31T01:30:55;20.40;99.90
35445;DHT22;21562;49.476;6.086;2023-07-31T01:33:24;19.90;99.90
35445;DHT22;21562;49.476;6.086;2023-07-31T01:35:50;19.90;99.90
35445;DHT22;21562;49.476;6.086;2023-07-31T01:38:16;20.00;99.90
35445;DHT22;21562;49.476;6.086;2023-07-31T01:40:51;20.20;99.90
35445;DHT22;21562;49.476;6.086;2023-07-31T01:43:17;20.40;99.90
35445;DHT22;21562;49.476;6.086;2023-07-31T01:45:43;20.20;99.90
35445;DHT22;21562;49.476;6.086;2023-07-31T01:48:08;20.30;99.90
35445;DHT22;21562;49.476;6.086;2023-07-31T01:50:34;20.50;99.90
35445;DHT22;21562;49.476;6.086;2023-07-31T01:53:00;20.50;99.90
35445;DHT22;21562;49.476;6.086;2023-07-31T01:55:25;20.70;99.90
35445;DHT22;21562;49.476;6.086;2023-07-31T01:57:51;20.50;99.90
35445;DHT22;21562;49.476;6.086;2023-07-31T02:00:18;20.50;99.90
35445;DHT22;21562;49.476;6.086;2023-07-31T02:02:43;20.50;99.90
35445;DHT22;21562;49.476;6.086;2023-07-31T02:05:09;20.40;99.90
35445;DHT22;21562;49.476;6.086;2023-07-31T02:07:34;20.30;99.90
35445;DHT22;21562;49.476;6.086;2023-07-31T02:10:00;20.30;99.90
35445;DHT22;21562;49.476;6.086;2023-07-31T02:12:26;20.20;99.90
35445;DHT22;21562;49.476;6.086;2023-07-31T02:14:51;20.00;99.90
35445;DHT22;21562;49.476;6.086;2023-07-31T02:17:17;19.80;99.90
35445;DHT22;21562;49.476;6.086;2023-07-31T02:19:42;19.60;99.90
35445;DHT22;21562;49.476;6.086;2023-07-31T02:22:08;19.50;99.90
35445;DHT22;21562;49.476;6.086;2023-07-31T02:24:34;19.50;99.90
35445;DHT22;21562;49.476;6.086;2023-07-31T02:26:59;19.50;99.90
35445;DHT22;21562;49.476;6.086;2023-07-31T02:29:25;19.70;99.90
35445;DHT22;21562;49.476;6.086;2023-07-31T02:31:50;19.90;99.90
35445;DHT22;21562;49.476;6.086;2023-07-31T02:34:16;20.00;99.90
35445;DHT22;21562;49.476;6.086;2023-07-31T02:36:42;20.10;99.90
35445;DHT22;21562;49.476;6.086;2023-07-31T02:39:07;20.10;99.90
35445;DHT22;21562;49.476;6.086;2023-07-31T02:41:33;19.90;99.90
35445;DHT22;21562;49.476;6.086;2023-07-31T02:43:58;20.00;99.90
35445;DHT22;21562;49.476;6.086;2023-07-31T02:46:24;20.10;99.90
35445;DHT22;21562;49.476;6.086;2023-07-31T02:48:50;20.10;99.90
35445;DHT22;21562;49.476;6.086;2023-07-31T02:51:16;20.20;99.90
35445;DHT22;21562;49.476;6.086;2023-07-31T02:53:42;20.10;99.90
35445;DHT22;21562;49.476;6.086;2023-07-31T02:56:08;20.20;99.90
35445;DHT22;21562;49.476;6.086;2023-07-31T02:58:33;20.30;99.90
35445;DHT22;21562;49.476;6.086;2023-07-31T03:00:59;20.40;99.90
35445;DHT22;21562;49.476;6.086;2023-07-31T03:03:25;20.30;99.90
35445;DHT22;21562;49.476;6.086;2023-07-31T03:05:50;20.20;99.90
35445;DHT22;21562;49.476;6.086;2023-07-31T03:08:16;20.10;99.90
35445;DHT22;21562;49.476;6.086;2023-07-31T03:10:42;19.60;99.90
35445;DHT22;21562;49.476;6.086;2023-07-31T03:13:07;19.50;99.90
35445;DHT22;21562;49.476;6.086;2023-07-31T03:15:33;19.50;99.90
35445;DHT22;21562;49.476;6.086;2023-07-31T03:17:58;19.50;99.90
35445;DHT22;21562;49.476;6.086;2023-07-31T03:20:24;19.20;99.90
35445;DHT22;21562;49.476;6.086;2023-07-31T03:22:50;19.30;99.90
35445;DHT22;21562;49.476;6.086;2023-07-31T03:25:15;19.40;99.90
35445;DHT22;21562;49.476;6.086;2023-07-31T03:27:41;19.30;99.90
35445;DHT22;21562;49.476;6.086;2023-07-31T03:30:07;19.40;99.90
35445;DHT22;21562;49.476;6.086;2023-07-31T03:32:32;19.20;99.90
35445;DHT22;21562;49.476;6.086;2023-07-31T03:34:58;19.20;99.90
35445;DHT22;21562;49.476;6.086;2023-07-31T03:37:24;19.10;99.90
35445;DHT22;21562;49.476;6.086;2023-07-31T03:39:49;19.00;99.90
35445;DHT22;21562;49.476;6.086;2023-07-31T03:42:15;18.90;99.90
35445;DHT22;21562;49.476;6.086;2023-07-31T03:44:41;18.90;99.90
35445;DHT22;21562;49.476;6.086;2023-07-31T03:47:06;18.80;99.90
35445;DHT22;21562;49.476;6.086;2023-07-31T03:49:32;18.90;99.90
35445;DHT22;21562;49.476;6.086;2023-07-31T03:51:57;18.70;99.90
35445;DHT22;21562;49.476;6.086;2023-07-31T03:54:23;18.80;99.90
35445;DHT22;21562;49.476;6.086;2023-07-31T03:56:49;18.70;99.90
35445;DHT22;21562;49.476;6.086;2023-07-31T03:59:15;18.50;99.90
35445;DHT22;21562;49.476;6.086;2023-07-31T04:01:40;18.20;99.90
35445;DHT22;21562;49.476;6.086;2023-07-31T04:04:06;18.20;99.90
35445;DHT22;21562;49.476;6.086;2023-07-31T04:06:31;18.20;99.90
35445;DHT22;21562;49.476;6.086;2023-07-31T04:08:57;18.20;99.90
35445;DHT22;21562;49.476;6.086;2023-07-31T04:11:23;18.40;99.90
35445;DHT22;21562;49.476;6.086;2023-07-31T04:13:48;18.50;99.90
35445;DHT22;21562;49.476;6.086;2023-07-31T04:16:14;18.40;99.90
35445;DHT22;21562;49.476;6.086;2023-07-31T04:18:40;18.50;99.90
35445;DHT22;21562;49.476;6.086;2023-07-31T04:21:05;18.10;99.90
35445;DHT22;21562;49.476;6.086;2023-07-31T04:23:31;18.20;99.90
35445;DHT22;21562;49.476;6.086;2023-07-31T04:25:56;18.10;99.90
35445;DHT22;21562;49.476;6.086;2023-07-31T04:28:22;17.90;99.90
35445;DHT22;21562;49.476;6.086;2023-07-31T04:30:48;17.90;99.90
35445;DHT22;21562;49.476;6.086;2023-07-31T04:33:13;18.10;99.90
35445;DHT22;21562;49.476;6.086;2023-07-31T04:35:39;18.30;99.90
35445;DHT22;21562;49.476;6.086;2023-07-31T04:38:05;18.20;99.90
35445;DHT22;21562;49.476;6.086;2023-07-31T04:40:31;18.10;99.90
35445;DHT22;21562;49.476;6.086;2023-07-31T04:42:57;18.00;99.90
35445;DHT22;21562;49.476;6.086;2023-07-31T04:45:22;17.90;99.90
35445;DHT22;21562;49.476;6.086;2023-07-31T04:47:48;18.00;99.90
35445;DHT22;21562;49.476;6.086;2023-07-31T04:50:13;18.00;99.90
35445;DHT22;21562;49.476;6.086;2023-07-31T04:52:39;18.00;99.90
35445;DHT22;21562;49.476;6.086;2023-07-31T04:55:05;17.90;99.90
35445;DHT22;21562;49.476;6.086;2023-07-31T04:57:30;17.90;99.90
35445;DHT22;21562;49.476;6.086;2023-07-31T04:59:56;18.00;99.90
35445;DHT22;21562;49.476;6.086;2023-07-31T05:02:22;18.10;99.90
35445;DHT22;21562;49.476;6.086;2023-07-31T05:04:47;18.20;99.90
35445;DHT22;21562;49.476;6.086;2023-07-31T05:07:13;18.30;99.90
35445;DHT22;21562;49.476;6.086;2023-07-31T05:09:38;18.50;99.90
35445;DHT22;21562;49.476;6.086;2023-07-31T05:12:05;18.30;99.90
35445;DHT22;21562;49.476;6.086;2023-07-31T05:14:31;18.40;99.90
35445;DHT22;21562;49.476;6.086;2023-07-31T05:16:56;18.50;99.90
35445;DHT22;21562;49.476;6.086;2023-07-31T05:19:22;18.60;99.90
35445;DHT22;21562;49.476;6.086;2023-07-31T05:21:47;18.50;99.90
35445;DHT22;21562;49.476;6.086;2023-07-31T05:24:13;18.50;99.90
35445;DHT22;21562;49.476;6.086;2023-07-31T05:26:39;18.30;99.90
35445;DHT22;21562;49.476;6.086;2023-07-31T05:29:04;18.40;99.90
35445;DHT22;21562;49.476;6.086;2023-07-31T05:31:30;18.50;99.90
35445;DHT22;21562;49.476;6.086;2023-07-31T05:33:57;18.70;99.90
35445;DHT22;21562;49.476;6.086;2023-07-31T05:36:23;18.90;99.90
35445;DHT22;21562;49.476;6.086;2023-07-31T05:38:48;18.80;99.90
35445;DHT22;21562;49.476;6.086;2023-07-31T05:41:14;19.00;99.90
35445;DHT22;21562;49.476;6.086;2023-07-31T05:43:40;19.00;99.90
35445;DHT22;21562;49.476;6.086;2023-07-31T05:46:06;19.20;99.90
35445;DHT22;21562;49.476;6.086;2023-07-31T05:48:32;19.00;99.90
35445;DHT22;21562;49.476;6.086;2023-07-31T05:50:59;18.90;99.90
35445;DHT22;21562;49.476;6.086;2023-07-31T05:53:25;18.90;99.90
35445;DHT22;21562;49.476;6.086;2023-07-31T05:55:50;19.00;99.90
35445;DHT22;21562;49.476;6.086;2023-07-31T05:58:16;18.70;99.90
35445;DHT22;21562;49.476;6.086;2023-07-31T06:00:42;18.60;99.90
35445;DHT22;21562;49.476;6.086;2023-07-31T06:03:07;18.50;99.90
35445;DHT22;21562;49.476;6.086;2023-07-31T06:05:33;18.50;99.90
35445;DHT22;21562;49.476;6.086;2023-07-31T06:07:59;18.40;99.90
35445;DHT22;21562;49.476;6.086;2023-07-31T06:10:24;18.30;99.90
35445;DHT22;21562;49.476;6.086;2023-07-31T06:12:50;18.50;99.90
35445;DHT22;21562;49.476;6.086;2023-07-31T06:15:16;18.50;99.90
35445;DHT22;21562;49.476;6.086;2023-07-31T06:17:43;18.80;99.90
35445;DHT22;21562;49.476;6.086;2023-07-31T06:20:09;19.00;99.90
35445;DHT22;21562;49.476;6.086;2023-07-31T06:22:35;18.50;99.90
35445;DHT22;21562;49.476;6.086;2023-07-31T06:25:01;18.50;99.90
35445;DHT22;21562;49.476;6.086;2023-07-31T06:27:26;18.30;99.90
35445;DHT22;21562;49.476;6.086;2023-07-31T06:29:52;18.30;99.90
35445;DHT22;21562;49.476;6.086;2023-07-31T06:32:17;18.20;99.90
35445;DHT22;21562;49.476;6.086;2023-07-31T06:34:43;17.90;99.90
35445;DHT22;21562;49.476;6.086;2023-07-31T06:37:09;18.00;99.90
35445;DHT22;21562;49.476;6.086;2023-07-31T06:39:34;18.30;99.90
35445;DHT22;21562;49.476;6.086;2023-07-31T06:42:00;18.40;99.90
35445;DHT22;21562;49.476;6.086;2023-07-31T06:44:26;18.90;99.90
35445;DHT22;21562;49.476;6.086;2023-07-31T06:46:51;19.70;99.90
35445;DHT22;21562;49.476;6.086;2023-07-31T06:49:17;20.20;99.90
35445;DHT22;21562;49.476;6.086;2023-07-31T06:51:43;20.60;99.90
35445;DHT22;21562;49.476;6.086;2023-07-31T06:54:09;20.90;99.90
35445;DHT22;21562;49.476;6.086;2023-07-31T06:56:35;20.80;99.90
35445;DHT22;21562;49.476;6.086;2023-07-31T06:59:00;20.80;99.90
35445;DHT22;21562;49.476;6.086;2023-07-31T07:01:26;20.70;99.90
35445;DHT22;21562;49.476;6.086;2023-07-31T07:03:53;20.50;99.90
35445;DHT22;21562;49.476;6.086;2023-07-31T07:06:18;20.30;99.90
35445;DHT22;21562;49.476;6.086;2023-07-31T07:08:44;19.80;99.90
35445;DHT22;21562;49.476;6.086;2023-07-31T07:11:10;20.30;99.90
35445;DHT22;21562;49.476;6.086;2023-07-31T07:13:35;20.90;99.90
35445;DHT22;21562;49.476;6.086;2023-07-31T07:16:01;21.10;99.90
35445;DHT22;21562;49.476;6.086;2023-07-31T07:18:27;20.90;99.90
35445;DHT22;21562;49.476;6.086;2023-07-31T07:20:53;20.60;99.90
35445;DHT22;21562;49.476;6.086;2023-07-31T07:23:20;20.70;99.90
35445;DHT22;21562;49.476;6.086;2023-07-31T07:25:46;20.80;99.90
35445;DHT22;21562;49.476;6.086;2023-07-31T07:28:12;21.10;99.90
35445;DHT22;21562;49.476;6.086;2023-07-31T07:30:38;21.20;99.90
35445;DHT22;21562;49.476;6.086;2023-07-31T07:33:04;21.20;99.90
35445;DHT22;21562;49.476;6.086;2023-07-31T07:35:29;20.60;99.90
35445;DHT22;21562;49.476;6.086;2023-07-31T07:37:55;20.20;99.90
35445;DHT22;21562;49.476;6.086;2023-07-31T07:40:22;20.40;99.90
35445;DHT22;21562;49.476;6.086;2023-07-31T07:42:47;20.40;99.90
35445;DHT22;21562;49.476;6.086;2023-07-31T07:45:13;20.40;99.90
35445;DHT22;21562;49.476;6.086;2023-07-31T07:47:41;20.30;99.90
35445;DHT22;21562;49.476;6.086;2023-07-31T07:50:07;20.50;99.90
35445;DHT22;21562;49.476;6.086;2023-07-31T07:52:33;20.60;99.90
35445;DHT22;21562;49.476;6.086;2023-07-31T07:54:58;21.00;99.90
35445;DHT22;21562;49.476;6.086;2023-07-31T07:57:25;21.00;99.90
35445;DHT22;21562;49.476;6.086;2023-07-31T07:59:51;20.90;99.90
35445;DHT22;21562;49.476;6.086;2023-07-31T08:02:17;20.70;99.90
35445;DHT22;21562;49.476;6.086;2023-07-31T08:04:42;20.80;99.90
35445;DHT22;21562;49.476;6.086;2023-07-31T08:07:11;20.70;99.90
35445;DHT22;21562;49.476;6.086;2023-07-31T08:09:37;20.40;99.90
35445;DHT22;21562;49.476;6.086;2023-07-31T08:12:03;20.50;99.90
35445;DHT22;21562;49.476;6.086;2023-07-31T08:14:29;20.50;99.90
35445;DHT22;21562;49.476;6.086;2023-07-31T08:16:55;20.50;99.90
35445;DHT22;21562;49.476;6.086;2023-07-31T08:19:21;20.50;99.90
35445;DHT22;21562;49.476;6.086;2023-07-31T08:21:46;20.40;99.90
35445;DHT22;21562;49.476;6.086;2023-07-31T08:24:12;20.50;99.90
35445;DHT22;21562;49.476;6.086;2023-07-31T08:26:38;20.70;99.90
35445;DHT22;21562;49.476;6.086;2023-07-31T08:29:03;20.90;99.90
35445;DHT22;21562;49.476;6.086;2023-07-31T08:31:29;20.80;99.90
35445;DHT22;21562;49.476;6.086;2023-07-31T08:33:55;20.50;99.90
35445;DHT22;21562;49.476;6.086;2023-07-31T08:36:21;20.40;99.90
35445;DHT22;21562;49.476;6.086;2023-07-31T08:38:46;20.30;99.90
35445;DHT22;21562;49.476;6.086;2023-07-31T08:41:12;20.40;99.90
35445;DHT22;21562;49.476;6.086;2023-07-31T08:43:39;20.40;99.90
35445;DHT22;21562;49.476;6.086;2023-07-31T08:46:05;20.60;99.90
35445;DHT22;21562;49.476;6.086;2023-07-31T08:48:31;20.40;99.90
35445;DHT22;21562;49.476;6.086;2023-07-31T08:50:57;20.20;99.90
35445;DHT22;21562;49.476;6.086;2023-07-31T08:53:23;20.20;99.90
35445;DHT22;21562;49.476;6.086;2023-07-31T08:55:49;20.10;99.90
35445;DHT22;21562;49.476;6.086;2023-07-31T08:58:15;20.20;99.90
35445;DHT22;21562;49.476;6.086;2023-07-31T09:00:41;20.10;99.90
35445;DHT22;21562;49.476;6.086;2023-07-31T09:03:13;20.20;99.90
35445;DHT22;21562;49.476;6.086;2023-07-31T09:05:42;20.40;99.90
35445;DHT22;21562;49.476;6.086;2023-07-31T09:08:10;20.60;99.90
35445;DHT22;21562;49.476;6.086;2023-07-31T09:10:43;20.10;99.90
35445;DHT22;21562;49.476;6.086;2023-07-31T09:13:09;19.90;99.90
35445;DHT22;21562;49.476;6.086;2023-07-31T09:15:36;20.00;99.90
35445;DHT22;21562;49.476;6.086;2023-07-31T09:18:03;20.50;99.90
35445;DHT22;21562;49.476;6.086;2023-07-31T09:20:30;20.50;99.90
35445;DHT22;21562;49.476;6.086;2023-07-31T09:22:57;20.70;99.90
35445;DHT22;21562;49.476;6.086;2023-07-31T09:25:30;20.30;99.90
35445;DHT22;21562;49.476;6.086;2023-07-31T09:28:01;20.40;99.90
35445;DHT22;21562;49.476;6.086;2023-07-31T09:30:27;20.00;99.90
35445;DHT22;21562;49.476;6.086;2023-07-31T09:33:04;19.80;99.90
35445;DHT22;21562;49.476;6.086;2023-07-31T09:35:33;19.60;99.90
35445;DHT22;21562;49.476;6.086;2023-07-31T09:40:31;20.00;99.90
35445;DHT22;21562;49.476;6.086;2023-07-31T09:43:01;20.10;99.90
35445;DHT22;21562;49.476;6.086;2023-07-31T09:45:28;20.30;99.90
35445;DHT22;21562;49.476;6.086;2023-07-31T09:47:54;20.70;99.90
35445;DHT22;21562;49.476;6.086;2023-07-31T09:50:22;20.90;99.90
35445;DHT22;21562;49.476;6.086;2023-07-31T09:52:47;20.60;99.90
35445;DHT22;21562;49.476;6.086;2023-07-31T09:55:13;20.40;99.90
35445;DHT22;21562;49.476;6.086;2023-07-31T09:57:45;20.40;99.90
35445;DHT22;21562;49.476;6.086;2023-07-31T10:00:12;20.10;99.90
35445;DHT22;21562;49.476;6.086;2023-07-31T10:02:38;19.50;99.90
35445;DHT22;21562;49.476;6.086;2023-07-31T10:05:06;19.30;99.90
35445;DHT22;21562;49.476;6.086;2023-07-31T10:07:36;19.30;99.90
35445;DHT22;21562;49.476;6.086;2023-07-31T10:10:04;19.40;99.90
35445;DHT22;21562;49.476;6.086;2023-07-31T10:12:33;19.40;99.90
35445;DHT22;21562;49.476;6.086;2023-07-31T10:15:00;19.30;99.90
35445;DHT22;21562;49.476;6.086;2023-07-31T10:17:26;19.30;99.90
35445;DHT22;21562;49.476;6.086;2023-07-31T10:19:52;19.10;99.90
35445;DHT22;21562;49.476;6.086;2023-07-31T10:22:20;19.00;99.90
35445;DHT22;21562;49.476;6.086;2023-07-31T10:24:46;18.90;99.90
35445;DHT22;21562;49.476;6.086;2023-07-31T10:27:13;19.10;99.90
35445;DHT22;21562;49.476;6.086;2023-07-31T10:29:40;19.30;99.90
35445;DHT22;21562;49.476;6.086;2023-07-31T10:32:11;19.20;99.90
35445;DHT22;21562;49.476;6.086;2023-07-31T10:34:39;19.10;99.90
35445;DHT22;21562;49.476;6.086;2023-07-31T10:39:59;19.20;99.90
35445;DHT22;21562;49.476;6.086;2023-07-31T10:42:35;19.30;99.90
35445;DHT22;21562;49.476;6.086;2023-07-31T10:45:06;19.30;99.90
35445;DHT22;21562;49.476;6.086;2023-07-31T10:50:28;19.80;99.90
35445;DHT22;21562;49.476;6.086;2023-07-31T10:52:56;19.90;99.90
35445;DHT22;21562;49.476;6.086;2023-07-31T10:55:32;19.80;99.90
35445;DHT22;21562;49.476;6.086;2023-07-31T10:58:12;19.80;99.90
35445;DHT22;21562;49.476;6.086;2023-07-31T11:00:43;19.80;99.90
35445;DHT22;21562;49.476;6.086;2023-07-31T11:05:52;19.60;99.90
35445;DHT22;21562;49.476;6.086;2023-07-31T11:08:25;19.90;99.90
35445;DHT22;21562;49.476;6.086;2023-07-31T11:11:05;20.20;99.90
35445;DHT22;21562;49.476;6.086;2023-07-31T11:13:46;20.60;99.90
35445;DHT22;21562;49.476;6.086;2023-07-31T11:16:16;20.40;99.90
35445;DHT22;21562;49.476;6.086;2023-07-31T11:18:44;20.80;99.90
35445;DHT22;21562;49.476;6.086;2023-07-31T11:21:14;21.10;99.90
35445;DHT22;21562;49.476;6.086;2023-07-31T11:23:41;21.00;99.90
35445;DHT22;21562;49.476;6.086;2023-07-31T11:26:07;21.10;99.90
35445;DHT22;21562;49.476;6.086;2023-07-31T11:28:34;20.00;99.90
35445;DHT22;21562;49.476;6.086;2023-07-31T11:31:00;19.50;99.90
35445;DHT22;21562;49.476;6.086;2023-07-31T11:33:26;19.30;99.90
35445;DHT22;21562;49.476;6.086;2023-07-31T11:35:51;19.30;99.90
35445;DHT22;21562;49.476;6.086;2023-07-31T11:38:28;19.20;99.90
35445;DHT22;21562;49.476;6.086;2023-07-31T11:41:00;19.30;99.90
35445;DHT22;21562;49.476;6.086;2023-07-31T11:43:27;19.60;99.90
35445;DHT22;21562;49.476;6.086;2023-07-31T11:45:55;19.20;99.90
35445;DHT22;21562;49.476;6.086;2023-07-31T11:48:21;18.80;99.90
35445;DHT22;21562;49.476;6.086;2023-07-31T11:50:49;18.50;99.90
35445;DHT22;21562;49.476;6.086;2023-07-31T11:53:17;18.40;99.90
35445;DHT22;21562;49.476;6.086;2023-07-31T11:55:43;18.50;99.90
35445;DHT22;21562;49.476;6.086;2023-07-31T11:58:09;18.20;99.90
35445;DHT22;21562;49.476;6.086;2023-07-31T12:00:35;18.10;99.90
35445;DHT22;21562;49.476;6.086;2023-07-31T12:03:01;18.10;99.90
35445;DHT22;21562;49.476;6.086;2023-07-31T12:05:27;18.10;99.90
35445;DHT22;21562;49.476;6.086;2023-07-31T12:07:54;18.30;99.90
35445;DHT22;21562;49.476;6.086;2023-07-31T12:10:31;18.80;99.90
35445;DHT22;21562;49.476;6.086;2023-07-31T12:15:34;19.10;99.90
35445;DHT22;21562;49.476;6.086;2023-07-31T12:18:03;19.40;99.90
35445;DHT22;21562;49.476;6.086;2023-07-31T12:20:30;19.50;99.90
35445;DHT22;21562;49.476;6.086;2023-07-31T12:22:56;19.60;99.90
35445;DHT22;21562;49.476;6.086;2023-07-31T12:25:28;19.70;99.90
35445;DHT22;21562;49.476;6.086;2023-07-31T12:27:53;19.50;99.90
35445;DHT22;21562;49.476;6.086;2023-07-31T12:30:34;19.90;99.90
35445;DHT22;21562;49.476;6.086;2023-07-31T12:33:12;20.30;99.90
35445;DHT22;21562;49.476;6.086;2023-07-31T12:35:40;20.40;99.90
35445;DHT22;21562;49.476;6.086;2023-07-31T12:38:06;20.80;99.90
35445;DHT22;21562;49.476;6.086;2023-07-31T12:40:32;21.10;99.90
35445;DHT22;21562;49.476;6.086;2023-07-31T12:43:00;20.80;99.90
35445;DHT22;21562;49.476;6.086;2023-07-31T12:45:26;20.90;99.90
35445;DHT22;21562;49.476;6.086;2023-07-31T12:47:52;20.90;99.90
35445;DHT22;21562;49.476;6.086;2023-07-31T12:50:18;20.80;99.90
35445;DHT22;21562;49.476;6.086;2023-07-31T12:52:43;20.90;99.90
35445;DHT22;21562;49.476;6.086;2023-07-31T12:55:09;21.00;99.90
35445;DHT22;21562;49.476;6.086;2023-07-31T12:57:36;21.00;99.90
35445;DHT22;21562;49.476;6.086;2023-07-31T13:00:02;20.90;99.90
35445;DHT22;21562;49.476;6.086;2023-07-31T13:02:28;20.80;99.90
35445;DHT22;21562;49.476;6.086;2023-07-31T13:04:54;21.00;99.90
35445;DHT22;21562;49.476;6.086;2023-07-31T13:07:22;21.00;99.90
35445;DHT22;21562;49.476;6.086;2023-07-31T13:09:48;21.10;99.90
35445;DHT22;21562;49.476;6.086;2023-07-31T13:12:13;21.20;99.90
35445;DHT22;21562;49.476;6.086;2023-07-31T13:14:39;21.20;99.90
35445;DHT22;21562;49.476;6.086;2023-07-31T13:17:05;21.30;99.90
35445;DHT22;21562;49.476;6.086;2023-07-31T13:19:30;21.10;99.90
35445;DHT22;21562;49.476;6.086;2023-07-31T13:21:56;21.20;99.90
35445;DHT22;21562;49.476;6.086;2023-07-31T13:24:22;21.00;99.90
35445;DHT22;21562;49.476;6.086;2023-07-31T13:26:47;21.10;99.90
35445;DHT22;21562;49.476;6.086;2023-07-31T13:29:13;21.00;99.90
35445;DHT22;21562;49.476;6.086;2023-07-31T13:31:38;21.40;99.90
35445;DHT22;21562;49.476;6.086;2023-07-31T13:34:04;21.50;99.90
35445;DHT22;21562;49.476;6.086;2023-07-31T13:36:30;21.40;99.90
35445;DHT22;21562;49.476;6.086;2023-07-31T13:38:55;21.40;99.90
35445;DHT22;21562;49.476;6.086;2023-07-31T13:41:21;21.50;99.90
35445;DHT22;21562;49.476;6.086;2023-07-31T13:43:46;21.10;99.90
35445;DHT22;21562;49.476;6.086;2023-07-31T13:46:12;20.80;99.90
35445;DHT22;21562;49.476;6.086;2023-07-31T13:48:38;20.60;99.90
35445;DHT22;21562;49.476;6.086;2023-07-31T13:51:04;20.60;99.90
35445;DHT22;21562;49.476;6.086;2023-07-31T13:53:30;21.20;99.90
35445;DHT22;21562;49.476;6.086;2023-07-31T13:55:56;21.40;99.90
35445;DHT22;21562;49.476;6.086;2023-07-31T13:58:22;21.10;99.90
35445;DHT22;21562;49.476;6.086;2023-07-31T14:00:47;21.10;99.90
35445;DHT22;21562;49.476;6.086;2023-07-31T14:03:13;21.50;99.90
35445;DHT22;21562;49.476;6.086;2023-07-31T14:05:38;21.30;99.90
35445;DHT22;21562;49.476;6.086;2023-07-31T14:08:04;21.30;99.90
35445;DHT22;21562;49.476;6.086;2023-07-31T14:10:30;21.50;99.90
35445;DHT22;21562;49.476;6.086;2023-07-31T14:12:55;21.80;99.90
35445;DHT22;21562;49.476;6.086;2023-07-31T14:15:21;22.20;99.90
35445;DHT22;21562;49.476;6.086;2023-07-31T14:17:46;22.20;99.90
35445;DHT22;21562;49.476;6.086;2023-07-31T14:20:12;22.20;99.90
35445;DHT22;21562;49.476;6.086;2023-07-31T14:22:38;22.00;99.90
35445;DHT22;21562;49.476;6.086;2023-07-31T14:25:04;21.60;99.90
35445;DHT22;21562;49.476;6.086;2023-07-31T14:27:30;21.40;99.90
35445;DHT22;21562;49.476;6.086;2023-07-31T14:29:56;21.00;99.90
35445;DHT22;21562;49.476;6.086;2023-07-31T14:32:22;20.80;99.90
35445;DHT22;21562;49.476;6.086;2023-07-31T14:34:50;20.40;99.90
35445;DHT22;21562;49.476;6.086;2023-07-31T14:37:16;20.20;99.90
35445;DHT22;21562;49.476;6.086;2023-07-31T14:39:42;20.00;99.90
35445;DHT22;21562;49.476;6.086;2023-07-31T14:42:08;20.00;99.90
35445;DHT22;21562;49.476;6.086;2023-07-31T14:44:34;20.10;99.90
35445;DHT22;21562;49.476;6.086;2023-07-31T14:47:00;19.90;99.90
35445;DHT22;21562;49.476;6.086;2023-07-31T14:49:25;19.80;99.90
35445;DHT22;21562;49.476;6.086;2023-07-31T14:51:53;19.70;99.90
35445;DHT22;21562;49.476;6.086;2023-07-31T14:54:19;19.80;99.90
35445;DHT22;21562;49.476;6.086;2023-07-31T14:56:45;19.90;99.90
35445;DHT22;21562;49.476;6.086;2023-07-31T14:59:10;20.00;99.90
35445;DHT22;21562;49.476;6.086;2023-07-31T15:01:37;19.90;99.90
35445;DHT22;21562;49.476;6.086;2023-07-31T15:04:03;19.90;99.90
35445;DHT22;21562;49.476;6.086;2023-07-31T15:06:28;19.80;99.90
35445;DHT22;21562;49.476;6.086;2023-07-31T15:08:54;19.50;99.90
35445;DHT22;21562;49.476;6.086;2023-07-31T15:11:20;19.50;99.90
35445;DHT22;21562;49.476;6.086;2023-07-31T15:13:45;19.50;99.90
35445;DHT22;21562;49.476;6.086;2023-07-31T15:16:11;19.70;99.90
35445;DHT22;21562;49.476;6.086;2023-07-31T15:18:36;19.80;99.90
35445;DHT22;21562;49.476;6.086;2023-07-31T15:21:02;19.60;99.90
35445;DHT22;21562;49.476;6.086;2023-07-31T15:23:28;19.30;99.90
35445;DHT22;21562;49.476;6.086;2023-07-31T15:25:53;19.10;99.90
35445;DHT22;21562;49.476;6.086;2023-07-31T15:28:19;19.00;99.90
35445;DHT22;21562;49.476;6.086;2023-07-31T15:30:45;18.90;99.90
35445;DHT22;21562;49.476;6.086;2023-07-31T15:33:10;19.00;99.90
35445;DHT22;21562;49.476;6.086;2023-07-31T15:35:36;18.90;99.90
35445;DHT22;21562;49.476;6.086;2023-07-31T15:38:02;19.00;99.90
35445;DHT22;21562;49.476;6.086;2023-07-31T15:40:27;19.00;99.90
35445;DHT22;21562;49.476;6.086;2023-07-31T15:42:53;19.00;99.90
35445;DHT22;21562;49.476;6.086;2023-07-31T15:45:18;18.90;99.90